Time;durP1;ratioP1;P1;durP2;ratioP2;P2;SDS_P1;SDS_P2;PMS_P1;PMS_P2;Temp;Humidity;BMP_temperature;BMP_pressure;BME280_temperature;BME280_humidity;BME280_pressure;Samples;Min_cycle;Max_cycle;Signal;HPM_P1;HPM_P2
2022/02/07 00:01:05;;;;;;;6.68;1.35;;;1.70;99.90;;;;;;5094224;28;20030;-63
2022/02/07 00:03:58;;;;;;;6.30;0.80;;;1.30;99.90;;;;;;5105799;28;20023;-62
2022/02/07 00:06:44;;;;;;;2.00;0.55;;;0.70;99.90;;;;;;5104256;28;20027;-62
2022/02/07 00:09:33;;;;;;;1.95;0.50;;;0.50;99.90;;;;;;5108475;28;20039;-61
2022/02/07 00:12:19;;;;;;;3.67;0.60;;;0.50;99.90;;;;;;5108483;28;20111;-62
2022/02/07 00:15:08;;;;;;;4.45;1.13;;;0.40;99.90;;;;;;5100508;28;20027;-62
2022/02/07 00:17:54;;;;;;;4.20;0.70;;;0.30;99.90;;;;;;5099928;28;20105;-62
2022/02/07 00:20:40;;;;;;;2.75;0.68;;;0.30;99.90;;;;;;5096155;28;20582;-61
2022/02/07 00:23:27;;;;;;;21.23;1.10;;;0.30;99.90;;;;;;5094659;28;20035;-62
2022/02/07 00:26:12;;;;;;;4.10;0.55;;;0.30;99.90;;;;;;5091969;28;20472;-62
2022/02/07 00:28:58;;;;;;;2.73;0.60;;;0.30;99.90;;;;;;5095907;28;20027;-63
2022/02/07 00:31:44;;;;;;;2.58;0.60;;;0.40;99.90;;;;;;5095520;28;20265;-62
2022/02/07 00:34:30;;;;;;;2.50;0.50;;;0.40;99.90;;;;;;5093690;28;20034;-63
2022/02/07 00:37:16;;;;;;;8.23;0.90;;;0.40;99.90;;;;;;5096311;28;20027;-62
2022/02/07 00:40:27;;;;;;;10.70;0.85;;;0.40;99.90;;;;;;5091154;28;20062;-62
2022/02/07 00:43:29;;;;;;;2.80;0.70;;;0.40;99.90;;;;;;5099870;27;20055;-63
2022/02/07 00:46:22;;;;;;;5.20;1.30;;;0.40;99.90;;;;;;5089622;28;20126;-62
2022/02/07 00:49:08;;;;;;;2.72;0.75;;;0.40;99.90;;;;;;5093835;28;20038;-62
2022/02/07 00:51:54;;;;;;;5.30;1.27;;;0.50;99.90;;;;;;5094642;28;20407;-62
2022/02/07 00:54:40;;;;;;;3.65;0.50;;;0.50;99.90;;;;;;5095156;28;20043;-64
2022/02/07 00:57:26;;;;;;;6.07;0.80;;;0.30;99.90;;;;;;5094160;28;20547;-63
2022/02/07 01:00:13;;;;;;;7.45;0.80;;;0.40;99.90;;;;;;5094901;28;20038;-62
2022/02/07 01:02:59;;;;;;;5.97;1.20;;;0.50;99.90;;;;;;5080876;28;20031;-61
2022/02/07 01:05:46;;;;;;;;;;;0.50;99.90;;;;;;5096834;28;20529;-62
2022/02/07 01:08:43;;;;;;;12.40;1.20;;;0.50;99.90;;;;;;5097689;28;20615;-61
2022/02/07 01:11:58;;;;;;;11.95;1.23;;;0.50;99.90;;;;;;5090036;28;20027;-62
2022/02/07 01:14:50;;;;;;;11.75;1.38;;;0.60;99.90;;;;;;5089751;28;20670;-63
2022/02/07 01:46:03;;;;;;;6.65;1.25;;;0.60;99.90;;;;;;5090073;28;20027;-60
2022/02/07 01:46:49;;;;;;;15.32;2.25;;;0.70;99.90;;;;;;5087244;28;20127;-59
2022/02/07 01:49:19;;;;;;;14.73;2.85;;;0.70;99.90;;;;;;5089900;28;20122;-62
2022/02/07 01:52:05;;;;;;;13.20;2.17;;;0.70;99.90;;;;;;5093609;28;20497;-62
2022/02/07 01:58:11;;;;;;;13.80;3.45;;;0.70;99.90;;;;;;5052364;28;20100;-60
2022/02/07 02:00:57;;;;;;;14.40;2.78;;;0.70;99.90;;;;;;5092163;28;20036;-62
2022/02/07 02:03:43;;;;;;;16.20;3.42;;;0.70;99.90;;;;;;5091675;28;20028;-60
2022/02/07 02:06:29;;;;;;;19.05;2.78;;;0.70;99.90;;;;;;5092770;28;20112;-62
2022/02/07 02:09:15;;;;;;;34.85;4.95;;;0.70;99.90;;;;;;5083891;28;20020;-61
2022/02/07 02:12:04;;;;;;;10.88;2.53;;;0.70;99.90;;;;;;5092133;28;20032;-61
2022/02/07 02:33:29;;;;;;;12.43;2.28;;;0.70;99.90;;;;;;5091403;28;20807;-61
2022/02/07 02:36:27;;;;;;;10.30;1.73;;;0.70;99.90;;;;;;5090835;28;20640;-61
2022/02/07 02:48:29;;;;;;;11.43;2.22;;;0.60;99.90;;;;;;5023999;28;20142;-64
2022/02/07 02:51:16;;;;;;;8.18;1.52;;;0.60;99.90;;;;;;5086613;28;20028;-61
2022/02/07 02:54:02;;;;;;;17.00;2.38;;;0.60;99.90;;;;;;5090350;28;20035;-63
2022/02/07 02:56:48;;;;;;;10.93;1.75;;;0.60;99.90;;;;;;5089972;28;20039;-61
2022/02/07 02:59:34;;;;;;;22.33;2.57;;;0.70;99.90;;;;;;5093502;28;20036;-63
2022/02/07 03:02:20;;;;;;;12.37;1.97;;;0.70;99.90;;;;;;5091339;28;20272;-60
2022/02/07 03:05:06;;;;;;;16.27;2.45;;;0.60;99.90;;;;;;5090769;28;20023;-61
2022/02/07 03:07:52;;;;;;;10.50;1.58;;;0.70;99.90;;;;;;5091358;28;20684;-62
2022/02/07 03:16:38;;;;;;;12.88;2.60;;;0.70;99.90;;;;;;5094043;28;20215;-61
2022/02/07 03:19:24;;;;;;;19.13;2.38;;;0.70;99.90;;;;;;5091781;28;20773;-62
2022/02/07 03:22:10;;;;;;;13.53;2.47;;;0.70;99.90;;;;;;5092064;28;20193;-62
2022/02/07 03:24:55;;;;;;;13.57;2.30;;;0.70;99.90;;;;;;5090918;28;20040;-63
2022/02/07 03:27:41;;;;;;;16.65;2.85;;;0.80;99.90;;;;;;5090331;28;20523;-62
2022/02/07 03:30:28;;;;;;;21.02;2.95;;;0.80;99.90;;;;;;5093192;28;20036;-62
2022/02/07 03:33:14;;;;;;;19.35;3.05;;;0.70;99.90;;;;;;5093224;28;20106;-61
2022/02/07 03:36:00;;;;;;;18.15;3.22;;;0.70;99.90;;;;;;5089397;28;20031;-62
2022/02/07 03:38:47;;;;;;;21.70;5.67;;;0.70;99.90;;;;;;5092949;28;20043;-61
2022/02/07 03:41:33;;;;;;;;;;;0.70;99.90;;;;;;5097954;28;20931;-63
2022/02/07 03:44:18;;;;;;;13.77;2.63;;;0.80;99.90;;;;;;5085549;28;19943;-61
2022/02/07 03:47:05;;;;;;;19.80;3.23;;;0.70;99.90;;;;;;5093491;28;20055;-61
2022/02/07 03:49:51;;;;;;;12.75;2.40;;;0.80;99.90;;;;;;5091984;28;20064;-64
2022/02/07 03:52:37;;;;;;;15.32;2.28;;;0.70;99.90;;;;;;5092899;28;20084;-64
2022/02/07 03:55:23;;;;;;;10.40;2.38;;;0.70;99.90;;;;;;5094104;28;20024;-64
2022/02/07 03:58:09;;;;;;;14.15;2.40;;;0.80;99.90;;;;;;5097320;28;20031;-63
2022/02/07 04:00:56;;;;;;;17.52;2.75;;;0.80;99.90;;;;;;5093987;28;20034;-63
2022/02/07 04:03:43;;;;;;;23.10;3.03;;;0.80;99.90;;;;;;5095273;28;20637;-63
2022/02/07 04:06:28;;;;;;;24.13;3.17;;;0.80;99.90;;;;;;5091918;28;20693;-62
2022/02/07 04:09:19;;;;;;;10.90;2.73;;;0.80;99.90;;;;;;5067281;28;20042;-62
2022/02/07 04:12:11;;;;;;;16.05;3.13;;;0.80;99.90;;;;;;5095759;28;20328;-63
2022/02/07 04:14:58;;;;;;;13.25;2.65;;;0.80;99.90;;;;;;5093336;28;20038;-63
2022/02/07 04:17:50;;;;;;;8.55;2.67;;;0.80;99.90;;;;;;5093396;28;20885;-63
2022/02/07 04:20:38;;;;;;;5.65;2.17;;;0.80;99.90;;;;;;5094709;28;20040;-64
2022/02/07 04:23:24;;;;;;;4.97;1.70;;;0.80;99.90;;;;;;5096312;28;20031;-60
2022/02/07 04:26:10;;;;;;;8.75;2.05;;;0.80;99.90;;;;;;5095430;28;20035;-61
2022/02/07 04:28:56;;;;;;;14.20;2.42;;;0.80;99.90;;;;;;5096817;28;20035;-63
2022/02/07 04:31:42;;;;;;;24.45;3.13;;;0.80;99.90;;;;;;5095151;28;20081;-63
2022/02/07 04:34:28;;;;;;;8.60;2.08;;;0.70;99.90;;;;;;5092079;28;20104;-61
2022/02/07 04:37:14;;;;;;;15.03;2.83;;;0.70;99.90;;;;;;5095590;28;20027;-65
2022/02/07 04:40:00;;;;;;;19.63;2.87;;;0.70;99.90;;;;;;5095180;28;20344;-61
2022/02/07 04:42:45;;;;;;;10.43;2.38;;;0.70;99.90;;;;;;5100114;27;20035;-61
2022/02/07 04:51:55;;;;;;;19.30;3.10;;;0.80;99.90;;;;;;5071577;28;20507;-62
2022/02/07 04:54:52;;;;;;;21.75;3.55;;;0.80;99.90;;;;;;5091227;28;20084;-62
2022/02/07 04:57:48;;;;;;;20.48;4.55;;;0.80;99.90;;;;;;5091866;28;20024;-62
2022/02/07 05:03:29;;;;;;;25.10;5.10;;;0.80;99.90;;;;;;5096046;28;20103;-60
2022/02/07 05:15:28;;;;;;;18.05;3.60;;;0.90;99.90;;;;;;5086967;28;20498;-62
2022/02/07 05:18:14;;;;;;;12.30;2.83;;;0.80;99.90;;;;;;5081042;28;20015;-63
2022/02/07 05:21:01;;;;;;;9.48;2.60;;;0.90;99.90;;;;;;5094237;28;20058;-64
2022/02/07 05:23:47;;;;;;;17.10;2.85;;;0.80;99.90;;;;;;5091467;28;20016;-63
2022/02/07 05:26:33;;;;;;;20.88;2.55;;;0.80;99.90;;;;;;5094689;28;20039;-63
2022/02/07 05:29:19;;;;;;;13.93;3.10;;;0.80;99.90;;;;;;5095730;28;20436;-63
2022/02/07 05:32:05;;;;;;;15.97;3.40;;;0.80;99.90;;;;;;5095109;28;20084;-63
2022/02/07 05:34:51;;;;;;;18.67;3.30;;;0.80;99.90;;;;;;5094285;28;20759;-63
2022/02/07 05:37:37;;;;;;;18.52;3.03;;;0.80;99.90;;;;;;5096410;28;20131;-65
2022/02/07 05:43:16;;;;;;;16.83;3.45;;;0.80;99.90;;;;;;5101589;27;21037;-64
2022/02/07 05:46:02;;;;;;;21.60;3.35;;;0.90;99.90;;;;;;5095932;28;20028;-62
2022/02/07 05:48:48;;;;;;;16.80;2.57;;;0.90;99.90;;;;;;5095465;28;20035;-61
2022/02/07 05:51:34;;;;;;;9.55;2.83;;;0.90;99.90;;;;;;5095221;28;20293;-61
2022/02/07 05:54:20;;;;;;;15.13;2.65;;;0.80;99.90;;;;;;5092531;28;20031;-61
2022/02/07 05:57:06;;;;;;;12.85;3.17;;;0.80;99.90;;;;;;5093850;28;20764;-62
2022/02/07 05:59:52;;;;;;;18.15;2.60;;;0.80;99.90;;;;;;5093091;28;20031;-62
2022/02/07 06:02:38;;;;;;;13.52;4.43;;;0.90;99.90;;;;;;5096154;28;20036;-61
2022/02/07 06:05:24;;;;;;;14.97;2.60;;;0.90;99.90;;;;;;5076643;28;20683;-61
2022/02/07 06:08:08;;;;;;;11.10;2.80;;;0.90;99.90;;;;;;5104738;28;20264;-61
2022/02/07 06:10:52;;;;;;;18.63;2.95;;;0.90;99.90;;;;;;5104400;28;20087;-61
2022/02/07 06:13:38;;;;;;;12.88;3.10;;;0.90;99.90;;;;;;5105590;28;20043;-61
2022/02/07 06:16:22;;;;;;;10.80;2.78;;;0.90;99.90;;;;;;5097051;28;20111;-61
2022/02/07 06:19:06;;;;;;;10.35;2.45;;;0.90;99.90;;;;;;5104356;28;20394;-61
2022/02/07 06:21:52;;;;;;;18.40;2.90;;;0.90;99.90;;;;;;5096336;28;20082;-61
2022/02/07 06:24:36;;;;;;;9.13;2.40;;;0.90;99.90;;;;;;5106827;28;20529;-61
2022/02/07 06:27:20;;;;;;;10.52;2.15;;;0.90;99.90;;;;;;5106082;28;20898;-61
2022/02/07 06:30:05;;;;;;;8.82;1.80;;;0.90;99.90;;;;;;5106918;28;20034;-62
2022/02/07 06:32:49;;;;;;;10.65;2.63;;;0.90;99.90;;;;;;5107433;28;21075;-61
2022/02/07 06:35:34;;;;;;;8.52;2.58;;;0.90;99.90;;;;;;5099489;28;20038;-62
2022/02/07 06:38:18;;;;;;;10.35;2.47;;;0.90;99.90;;;;;;5099474;28;20031;-61
2022/02/07 06:41:02;;;;;;;4.28;1.75;;;1.00;99.90;;;;;;5107150;28;20112;-61
2022/02/07 06:43:46;;;;;;;6.10;1.83;;;0.90;99.90;;;;;;5110106;27;20049;-61
2022/02/07 06:46:31;;;;;;;6.85;2.13;;;0.90;99.90;;;;;;5101029;28;20042;-61
2022/02/07 06:49:15;;;;;;;5.75;1.60;;;1.00;99.90;;;;;;5104470;28;20038;-62
2022/02/07 06:51:59;;;;;;;5.90;1.85;;;1.00;99.90;;;;;;5106516;28;20154;-62
2022/02/07 06:54:43;;;;;;;7.68;2.20;;;1.00;99.90;;;;;;5102245;28;20042;-61
2022/02/07 06:57:28;;;;;;;10.65;2.75;;;1.00;99.90;;;;;;5100516;28;20074;-62
2022/02/07 07:00:15;;;;;;;10.80;2.47;;;0.90;99.90;;;;;;5091709;28;20038;-61
2022/02/07 07:03:01;;;;;;;;;;;0.90;99.90;;;;;;5077610;28;20619;-60
2022/02/07 07:05:50;;;;;;;12.27;3.50;;;0.90;99.90;;;;;;5093707;28;20621;-61
2022/02/07 07:08:42;;;;;;;11.60;2.83;;;0.90;99.90;;;;;;5092136;28;20031;-61
2022/02/07 07:11:28;;;;;;;19.73;3.55;;;1.00;99.90;;;;;;5091989;28;20035;-60
2022/02/07 07:14:28;;;;;;;24.45;3.90;;;1.00;99.90;;;;;;5075451;28;20112;-61
2022/02/07 07:17:14;;;;;;;22.92;3.83;;;1.00;99.90;;;;;;5063307;28;20043;-61
2022/02/07 07:20:03;;;;;;;15.97;3.40;;;1.00;99.90;;;;;;5091310;28;20028;-61
2022/02/07 07:22:49;;;;;;;12.35;3.80;;;1.00;99.90;;;;;;5091679;28;20303;-62
2022/02/07 07:25:37;;;;;;;19.30;3.58;;;1.10;99.90;;;;;;5086545;28;20220;-62
2022/02/07 07:28:23;;;;;;;16.83;3.20;;;1.00;99.90;;;;;;5077599;28;20027;-61
2022/02/07 07:31:12;;;;;;;17.92;2.80;;;1.10;99.90;;;;;;5095728;28;20779;-62
2022/02/07 07:33:58;;;;;;;8.98;2.50;;;1.10;99.90;;;;;;5097303;28;20035;-63
2022/02/07 07:36:46;;;;;;;11.50;2.78;;;1.00;99.90;;;;;;5095675;28;20711;-61
2022/02/07 07:39:32;;;;;;;15.98;3.10;;;1.10;99.90;;;;;;5092694;28;20043;-61
2022/02/07 07:42:18;;;;;;;16.85;3.00;;;1.10;99.90;;;;;;5097773;28;20049;-61
2022/02/07 07:45:04;;;;;;;11.95;3.03;;;1.10;99.90;;;;;;5093315;28;20077;-63
2022/02/07 07:47:57;;;;;;;9.10;2.17;;;1.10;99.90;;;;;;5093509;28;20617;-61
2022/02/07 07:50:54;;;;;;;21.08;4.25;;;1.20;99.90;;;;;;5095862;28;20659;-61
2022/02/07 08:02:36;;;;;;;15.82;4.35;;;1.30;99.90;;;;;;5096454;28;20684;-62
2022/02/07 08:05:47;;;;;;;15.98;3.05;;;1.30;99.90;;;;;;5093868;28;20043;-60
2022/02/07 08:08:37;;;;;;;12.40;2.42;;;1.40;99.90;;;;;;5095880;28;20050;-62
2022/02/07 08:11:22;;;;;;;10.15;2.28;;;1.40;99.90;;;;;;5096117;28;20038;-62
2022/02/07 08:14:08;;;;;;;18.57;3.50;;;1.40;99.90;;;;;;5093617;28;20718;-62
2022/02/07 08:16:54;;;;;;;14.82;2.38;;;1.50;99.90;;;;;;5094280;28;20630;-61
2022/02/07 08:19:44;;;;;;;15.00;3.57;;;1.60;99.90;;;;;;5096386;28;20141;-61
2022/02/07 08:22:30;;;;;;;13.15;2.38;;;1.60;99.90;;;;;;5094907;28;20152;-61
2022/02/07 08:25:16;;;;;;;10.40;2.25;;;1.60;99.90;;;;;;5071334;28;20035;-63
2022/02/07 08:28:03;;;;;;;14.33;2.10;;;1.60;99.90;;;;;;5096984;28;20122;-63
2022/02/07 08:30:49;;;;;;;9.35;2.15;;;1.50;99.90;;;;;;5095804;28;20027;-63
2022/02/07 08:33:35;;;;;;;5.85;1.90;;;1.60;99.90;;;;;;5093459;28;20085;-65
2022/02/07 08:36:21;;;;;;;9.43;1.37;;;1.50;99.90;;;;;;5090399;28;20035;-64
2022/02/07 08:39:08;;;;;;;14.50;2.67;;;1.60;99.90;;;;;;5094080;28;20310;-64
2022/02/07 08:41:54;;;;;;;13.85;2.17;;;1.50;99.90;;;;;;5100843;27;20119;-64
2022/02/07 08:44:40;;;;;;;11.93;2.58;;;1.50;99.90;;;;;;5092334;28;20126;-63
2022/02/07 08:47:26;;;;;;;14.20;2.13;;;1.50;99.90;;;;;;5094855;28;20075;-64
2022/02/07 08:50:12;;;;;;;17.65;2.72;;;1.50;99.90;;;;;;5095774;28;20273;-62
2022/02/07 08:53:01;;;;;;;15.35;2.25;;;1.60;99.90;;;;;;5082363;28;20034;-63
2022/02/07 08:55:51;;;;;;;16.73;2.75;;;1.60;99.90;;;;;;5033772;28;20551;-63
2022/02/07 08:58:42;;;;;;;21.45;3.15;;;1.60;99.90;;;;;;5030781;28;20091;-63
2022/02/07 09:01:40;;;;;;;23.10;3.47;;;1.70;99.90;;;;;;5032975;28;20028;-61
2022/02/07 09:07:33;;;;;;;23.80;3.83;;;1.90;99.90;;;;;;5036169;28;20029;-62
2022/02/07 09:10:19;;;;;;;17.15;3.08;;;1.90;99.90;;;;;;5015269;28;20104;-63
2022/02/07 09:13:05;;;;;;;20.05;3.47;;;1.80;99.90;;;;;;5032647;28;20028;-64
2022/02/07 09:18:59;;;;;;;20.70;4.10;;;1.90;99.90;;;;;;5033879;28;20275;-62
2022/02/07 09:21:46;;;;;;;24.98;4.70;;;1.90;99.90;;;;;;5031914;28;20090;-63
2022/02/07 09:24:32;;;;;;;26.38;3.63;;;2.00;99.90;;;;;;5026901;28;20130;-63
2022/02/07 09:27:18;;;;;;;22.47;3.03;;;1.90;99.90;;;;;;5033539;28;20021;-64
2022/02/07 09:30:07;;;;;;;16.63;3.27;;;1.90;99.90;;;;;;5035649;28;20366;-64
2022/02/07 09:32:54;;;;;;;28.65;3.58;;;1.90;99.90;;;;;;5041534;28;20060;-63
2022/02/07 09:35:42;;;;;;;22.23;3.65;;;1.90;99.90;;;;;;5035449;28;20729;-62
2022/02/07 09:38:29;;;;;;;27.25;5.28;;;1.80;99.90;;;;;;5025046;28;20039;-63
2022/02/07 09:41:18;;;;;;;26.75;3.63;;;1.90;99.90;;;;;;5025200;28;20130;-61
2022/02/07 09:44:08;;;;;;;36.08;4.18;;;1.90;99.90;;;;;;5033100;28;20021;-62
2022/02/07 09:46:54;;;;;;;31.73;4.15;;;2.00;99.90;;;;;;5032799;28;20129;-62
2022/02/07 09:49:43;;;;;;;34.38;3.92;;;1.90;99.90;;;;;;5033660;28;20123;-62
2022/02/07 09:52:29;;;;;;;22.80;3.92;;;2.00;99.90;;;;;;5027913;28;20052;-64
2022/02/07 09:55:15;;;;;;;20.70;3.50;;;2.10;99.90;;;;;;5015268;28;20116;-63
2022/02/07 09:58:01;;;;;;;36.17;6.13;;;2.20;99.90;;;;;;5039616;28;20265;-63
2022/02/07 10:00:48;;;;;;;25.42;5.07;;;2.20;99.90;;;;;;5033452;28;20576;-62
2022/02/07 10:03:53;;;;;;;31.67;4.68;;;2.40;99.90;;;;;;5032286;28;20032;-63
2022/02/07 10:07:01;;;;;;;29.27;4.85;;;2.40;99.90;;;;;;5028881;28;20062;-62
2022/02/07 10:10:12;;;;;;;27.08;4.63;;;2.50;99.90;;;;;;5032626;28;20742;-62
2022/02/07 10:13:17;;;;;;;27.25;4.03;;;2.40;99.90;;;;;;5031998;28;20112;-62
2022/02/07 10:16:26;;;;;;;16.60;3.85;;;2.60;99.90;;;;;;5033371;28;20040;-63
2022/02/07 10:19:37;;;;;;;34.85;6.32;;;2.70;99.90;;;;;;5032276;28;20024;-62
2022/02/07 10:22:55;;;;;;;25.58;4.28;;;2.70;99.90;;;;;;5031172;28;20065;-62
2022/02/07 10:38:14;;;;;;;27.95;5.35;;;3.00;99.90;;;;;;5031594;28;20033;-63
2022/02/07 10:44:09;;;;;;;31.95;5.65;;;2.90;99.90;;;;;;5028424;28;20044;-62
2022/02/07 10:46:55;;;;;;;31.80;4.03;;;3.00;99.90;;;;;;5030270;28;20033;-63
2022/02/07 10:50:10;;;;;;;33.13;5.03;;;3.20;99.90;;;;;;5032356;28;20032;-62
2022/02/07 10:52:59;;;;;;;26.75;4.95;;;3.10;99.90;;;;;;5033200;28;20064;-62
2022/02/07 10:55:46;;;;;;;36.67;4.57;;;3.40;99.90;;;;;;5030936;28;20719;-64
2022/02/07 10:58:32;;;;;;;19.10;4.00;;;3.60;99.90;;;;;;5032171;28;20039;-64
2022/02/07 11:01:27;;;;;;;25.77;5.40;;;3.70;99.90;;;;;;5025833;28;20469;-63
2022/02/07 11:04:28;;;;;;;25.80;4.32;;;3.70;99.90;;;;;;5030337;28;20107;-63
2022/02/07 11:07:17;;;;;;;34.67;4.97;;;3.90;99.90;;;;;;5029051;28;20171;-62
2022/02/07 11:10:27;;;;;;;35.35;5.57;;;3.90;99.90;;;;;;5031382;28;20041;-63
2022/02/07 11:13:39;;;;;;;43.95;4.90;;;3.90;99.90;;;;;;5038869;28;20017;-61
2022/02/07 11:22:47;;;;;;;18.83;3.80;;;4.10;99.90;;;;;;5032798;28;20046;-61
2022/02/07 11:28:46;;;;;;;27.13;4.57;;;3.70;99.90;;;;;;5026331;28;20025;-61
2022/02/07 11:31:40;;;;;;;25.77;4.28;;;3.90;99.90;;;;;;5031783;28;20525;-61
2022/02/07 11:34:41;;;;;;;26.35;4.68;;;4.10;99.90;;;;;;5029962;28;20060;-62
2022/02/07 11:37:27;;;;;;;28.33;5.63;;;3.90;99.90;;;;;;5031542;28;20849;-61
2022/02/07 11:40:34;;;;;;;39.20;5.37;;;3.80;99.90;;;;;;5031535;28;20184;-61
2022/02/07 11:43:23;;;;;;;33.42;5.40;;;3.80;99.90;;;;;;5034499;28;20103;-61
2022/02/07 11:46:12;;;;;;;23.35;3.80;;;4.10;99.90;;;;;;5031003;28;20125;-62
2022/02/07 11:48:58;;;;;;;25.65;4.65;;;4.40;99.90;;;;;;5032744;28;20029;-63
2022/02/07 11:51:45;;;;;;;23.37;3.90;;;4.30;99.90;;;;;;5032443;28;20082;-62
2022/02/07 11:54:33;;;;;;;30.83;5.07;;;4.30;99.90;;;;;;5024830;28;20037;-62
2022/02/07 11:57:21;;;;;;;27.17;3.45;;;4.20;99.90;;;;;;5029684;28;20057;-61
2022/02/07 12:00:16;;;;;;;27.00;3.78;;;4.20;99.90;;;;;;5032086;28;20040;-62
2022/02/07 12:03:07;;;;;;;19.75;4.00;;;4.30;99.90;;;;;;5030381;28;20036;-61
2022/02/07 12:05:56;;;;;;;29.77;4.35;;;4.30;99.90;;;;;;5026946;28;20739;-62
2022/02/07 12:08:47;;;;;;;25.00;3.90;;;4.10;99.90;;;;;;5026426;28;20074;-61
2022/02/07 12:11:45;;;;;;;25.30;3.83;;;4.20;99.90;;;;;;5031729;28;20521;-62
2022/02/07 12:14:36;;;;;;;33.78;4.85;;;4.30;99.90;;;;;;5028845;28;20673;-62
2022/02/07 12:17:42;;;;;;;29.05;4.43;;;4.30;99.90;;;;;;5033493;28;20047;-62
2022/02/07 12:20:34;;;;;;;26.73;4.63;;;4.30;99.90;;;;;;5029906;28;20041;-61
2022/02/07 12:23:26;;;;;;;22.05;4.65;;;4.20;99.90;;;;;;5032702;28;20629;-61
2022/02/07 12:26:15;;;;;;;20.60;3.28;;;4.20;99.90;;;;;;5033384;28;20551;-62
2022/02/07 12:29:08;;;;;;;24.50;4.65;;;4.20;99.90;;;;;;5032869;28;20040;-62
2022/02/07 12:31:54;;;;;;;24.30;3.72;;;4.30;99.90;;;;;;5036739;28;20032;-65
2022/02/07 12:34:40;;;;;;;29.08;4.43;;;4.20;99.90;;;;;;5031564;28;20090;-62
2022/02/07 12:37:26;;;;;;;30.63;4.57;;;4.00;99.90;;;;;;5027791;28;20040;-60
2022/02/07 12:40:12;;;;;;;21.05;3.70;;;3.80;99.90;;;;;;5033362;28;20032;-63
2022/02/07 12:43:04;;;;;;;26.73;5.80;;;3.90;99.90;;;;;;5037535;28;20037;-62
2022/02/07 12:45:51;;;;;;;29.83;4.25;;;3.90;99.90;;;;;;5033980;28;20065;-62
2022/02/07 12:48:42;;;;;;;27.13;5.10;;;4.00;99.90;;;;;;5048456;28;20706;-63
2022/02/07 12:51:31;;;;;;;32.78;5.32;;;4.10;99.90;;;;;;5028139;28;20048;-63
2022/02/07 12:54:20;;;;;;;23.77;3.85;;;4.10;99.90;;;;;;5026290;28;20067;-63
2022/02/07 12:57:06;;;;;;;22.60;4.00;;;4.20;99.90;;;;;;5031440;28;20029;-63
2022/02/07 12:59:53;;;;;;;26.03;4.30;;;4.50;99.90;;;;;;5028628;28;20032;-62
2022/02/07 13:02:44;;;;;;;16.38;4.22;;;4.50;99.90;;;;;;5026777;28;20142;-62
2022/02/07 13:05:31;;;;;;;29.67;5.03;;;4.20;99.90;;;;;;5045849;28;20047;-63
2022/02/07 13:08:17;;;;;;;23.73;5.65;;;3.90;99.90;;;;;;5028518;28;20083;-63
2022/02/07 13:11:03;;;;;;;22.70;4.35;;;3.80;99.90;;;;;;5034742;28;20741;-63
2022/02/07 13:13:54;;;;;;;23.83;4.17;;;3.60;99.90;;;;;;5033928;28;20041;-59
2022/02/07 13:16:40;;;;;;;18.33;3.60;;;3.60;99.90;;;;;;5031680;28;20053;-60
2022/02/07 13:19:28;;;;;;;18.88;4.15;;;3.60;99.90;;;;;;5028171;28;20032;-60
2022/02/07 13:22:16;;;;;;;28.67;3.97;;;3.80;99.90;;;;;;5033998;28;20052;-61
2022/02/07 13:25:04;;;;;;;16.65;3.30;;;3.80;99.90;;;;;;5032410;28;20695;-62
2022/02/07 13:27:54;;;;;;;17.50;3.42;;;3.80;99.90;;;;;;5034407;28;20025;-61
2022/02/07 13:30:43;;;;;;;23.13;3.58;;;3.60;99.90;;;;;;5033488;28;20842;-62
2022/02/07 13:33:29;;;;;;;14.95;3.15;;;3.60;99.90;;;;;;5034169;28;20127;-62
2022/02/07 13:36:41;;;;;;;18.15;2.90;;;3.80;99.90;;;;;;5034410;28;20058;-61
2022/02/07 13:39:28;;;;;;;23.27;3.92;;;4.00;99.90;;;;;;5031690;28;20051;-63
2022/02/07 13:42:15;;;;;;;22.05;4.10;;;4.10;99.90;;;;;;5036369;28;20056;-63
2022/02/07 13:45:11;;;;;;;19.77;4.22;;;4.30;99.90;;;;;;5030849;28;20068;-62
2022/02/07 13:47:58;;;;;;;21.20;3.88;;;4.20;99.90;;;;;;5031050;28;20032;-61
2022/02/07 13:50:47;;;;;;;31.20;5.00;;;4.30;99.90;;;;;;5033770;28;20032;-63
2022/02/07 13:53:33;;;;;;;18.63;4.05;;;4.30;99.90;;;;;;5033422;28;20044;-63
2022/02/07 13:56:33;;;;;;;27.75;5.43;;;4.30;99.90;;;;;;5032015;28;20596;-62
2022/02/07 13:59:19;;;;;;;19.33;2.92;;;4.30;99.90;;;;;;5027168;28;20659;-62
2022/02/07 14:02:26;;;;;;;29.65;3.88;;;4.30;99.90;;;;;;5035354;28;20664;-61
2022/02/07 14:05:19;;;;;;;19.33;3.20;;;4.10;99.90;;;;;;5030753;28;20028;-62
2022/02/07 14:08:08;;;;;;;27.30;5.13;;;4.10;99.90;;;;;;5030576;28;20041;-62
2022/02/07 14:10:54;;;;;;;27.48;4.55;;;3.90;99.90;;;;;;5033787;28;20615;-62
2022/02/07 14:13:42;;;;;;;27.77;4.28;;;3.90;99.90;;;;;;5031461;28;20607;-62
2022/02/07 14:16:28;;;;;;;22.33;3.20;;;3.80;99.90;;;;;;5030788;28;20036;-62
2022/02/07 14:19:16;;;;;;;25.15;4.78;;;3.70;99.90;;;;;;5025042;28;20037;-62
2022/02/07 14:22:02;;;;;;;18.38;3.40;;;3.70;99.90;;;;;;5034352;28;20029;-62
2022/02/07 14:24:48;;;;;;;26.17;3.58;;;3.70;99.90;;;;;;5030725;28;20055;-62
2022/02/07 14:27:34;;;;;;;18.20;2.77;;;3.60;99.90;;;;;;5029170;28;20731;-62
2022/02/07 14:30:20;;;;;;;22.17;4.38;;;3.70;99.90;;;;;;5033849;28;20690;-60
2022/02/07 14:33:06;;;;;;;19.15;3.22;;;3.50;99.90;;;;;;5033131;28;20021;-62
2022/02/07 14:35:52;;;;;;;22.30;3.47;;;3.40;99.90;;;;;;5029973;28;20434;-62
2022/02/07 14:38:38;;;;;;;21.58;3.65;;;3.50;99.90;;;;;;5034072;28;20055;-62
2022/02/07 14:41:24;;;;;;;23.75;3.58;;;3.40;99.90;;;;;;5033002;28;20799;-63
2022/02/07 14:44:19;;;;;;;28.27;4.65;;;3.50;99.90;;;;;;5032440;28;20067;-61
2022/02/07 14:47:12;;;;;;;20.90;3.25;;;3.50;99.90;;;;;;5030650;28;20033;-62
2022/02/07 14:49:58;;;;;;;26.45;3.58;;;3.60;99.90;;;;;;5027999;28;20125;-61
2022/02/07 14:52:44;;;;;;;24.23;3.23;;;3.60;99.90;;;;;;5028016;28;20587;-62
2022/02/07 14:55:30;;;;;;;24.00;3.43;;;3.60;99.90;;;;;;5028792;28;20036;-62
2022/02/07 14:58:17;;;;;;;17.90;3.08;;;3.50;99.90;;;;;;5026001;28;20264;-61
2022/02/07 15:01:04;;;;;;;18.90;3.10;;;3.50;99.90;;;;;;5033091;28;20060;-62
2022/02/07 15:03:50;;;;;;;25.77;4.07;;;3.50;99.90;;;;;;5032519;28;20031;-61
2022/02/07 15:06:36;;;;;;;44.47;4.78;;;3.40;99.90;;;;;;5027254;28;20036;-62
2022/02/07 15:09:22;;;;;;;21.33;3.50;;;3.30;99.90;;;;;;5025336;28;20174;-62
2022/02/07 15:12:08;;;;;;;21.60;3.35;;;3.30;99.90;;;;;;5034184;28;20036;-61
2022/02/07 15:14:54;;;;;;;17.70;2.72;;;3.30;99.90;;;;;;5030344;28;20325;-63
2022/02/07 15:17:40;;;;;;;21.88;3.00;;;3.30;99.90;;;;;;5026715;28;20083;-61
2022/02/07 15:20:27;;;;;;;16.67;3.63;;;3.30;99.90;;;;;;5045142;28;20036;-60
2022/02/07 15:23:13;;;;;;;14.95;3.40;;;3.30;99.90;;;;;;5030119;28;20032;-62
2022/02/07 15:26:01;;;;;;;36.30;4.10;;;3.30;99.90;;;;;;5030824;28;20033;-62
2022/02/07 15:28:49;;;;;;;18.00;3.50;;;3.20;99.90;;;;;;5033350;28;20619;-62
2022/02/07 15:31:35;;;;;;;12.45;3.67;;;3.20;99.90;;;;;;5030073;28;20637;-61
2022/02/07 15:34:21;;;;;;;20.73;3.90;;;3.20;99.90;;;;;;5027810;28;20028;-61
2022/02/07 15:37:07;;;;;;;14.73;3.73;;;3.20;99.90;;;;;;5032109;28;20755;-61
2022/02/07 15:39:53;;;;;;;13.20;3.27;;;3.30;99.90;;;;;;5030619;28;20033;-63
2022/02/07 15:42:42;;;;;;;;;;;3.40;99.90;;;;;;5033050;28;20588;-62
2022/02/07 15:45:28;;;;;;;18.05;4.75;;;3.30;99.90;;;;;;5030263;28;19912;-62
2022/02/07 15:48:14;;;;;;;27.60;4.50;;;3.20;99.90;;;;;;5033745;28;20138;-62
2022/02/07 15:51:01;;;;;;;22.50;4.38;;;3.20;99.90;;;;;;5035118;28;20029;-61
2022/02/07 15:53:47;;;;;;;24.25;4.75;;;3.20;99.90;;;;;;5030150;28;20684;-62
2022/02/07 15:56:33;;;;;;;19.40;4.32;;;3.20;99.90;;;;;;5030387;28;20091;-62
2022/02/07 15:59:19;;;;;;;28.65;5.95;;;3.20;99.90;;;;;;5036968;28;20572;-62
2022/02/07 16:02:06;;;;;;;19.27;4.57;;;3.20;99.90;;;;;;5038145;28;20742;-63
2022/02/07 16:04:53;;;;;;;19.00;4.95;;;3.10;99.90;;;;;;5034369;28;20033;-62
2022/02/07 16:07:39;;;;;;;24.92;5.20;;;3.10;99.90;;;;;;5024262;28;20714;-63
2022/02/07 16:10:26;;;;;;;40.03;7.60;;;3.10;99.90;;;;;;5035365;28;20037;-63
2022/02/07 16:16:03;;;;;;;16.30;5.47;;;3.00;99.90;;;;;;5034861;28;20059;-63
2022/02/07 16:18:48;;;;;;;21.60;5.88;;;3.00;99.90;;;;;;5035679;28;20025;-62
2022/02/07 16:21:35;;;;;;;19.57;5.83;;;3.00;99.90;;;;;;5034287;28;20444;-62
2022/02/07 16:24:21;;;;;;;22.05;6.20;;;3.00;99.90;;;;;;5035007;28;20048;-60
2022/02/07 16:27:07;;;;;;;23.90;6.47;;;3.00;99.90;;;;;;5034783;28;20037;-61
2022/02/07 16:29:53;;;;;;;;;;;3.00;99.90;;;;;;5034171;28;20275;-61
2022/02/07 16:32:39;;;;;;;22.88;5.93;;;3.00;99.90;;;;;;5030984;28;19911;-61
2022/02/07 16:35:25;;;;;;;16.30;5.80;;;2.90;99.90;;;;;;5032761;28;20471;-61
2022/02/07 16:38:12;;;;;;;22.00;6.78;;;2.90;99.90;;;;;;5035528;28;20104;-61
2022/02/07 16:40:59;;;;;;;32.97;6.55;;;2.90;99.90;;;;;;5036020;28;20041;-62
2022/02/07 16:43:46;;;;;;;20.77;6.45;;;2.90;99.90;;;;;;5034700;28;20036;-60
2022/02/07 16:46:48;;;;;;;24.60;5.88;;;2.90;99.90;;;;;;5037729;28;20041;-62
2022/02/07 16:49:35;;;;;;;21.42;6.18;;;2.80;99.90;;;;;;5036068;28;20029;-62